Time;durP1;ratioP1;P1;durP2;ratioP2;P2;SDS_P1;SDS_P2;PMS_P1;PMS_P2;Temp;Humidity;BMP_temperature;BMP_pressure;BME280_temperature;BME280_humidity;BME280_pressure;Samples;Min_cycle;Max_cycle;Signal;HPM_P1;HPM_P2
2022/10/06 00:00:16;;;;;;;7.42;5.12;;;12.80;91.10;;;;;;1867643;76;21007;-58
2022/10/06 00:02:46;;;;;;;9.28;5.40;;;12.80;91.10;;;;;;1867709;76;21038;-58
2022/10/06 00:05:15;;;;;;;7.03;4.45;;;12.80;91.00;;;;;;1867723;75;21087;-58
2022/10/06 00:07:44;;;;;;;6.47;5.22;;;12.80;90.60;;;;;;1869361;76;21082;-58
2022/10/06 00:10:14;;;;;;;7.33;4.58;;;12.70;90.70;;;;;;1867558;77;21112;-58
2022/10/06 00:12:45;;;;;;;7.55;4.90;;;12.60;91.00;;;;;;1867661;76;21002;-58
2022/10/06 00:15:17;;;;;;;9.75;4.58;;;12.60;91.10;;;;;;1867646;75;21078;-58
2022/10/06 00:17:46;;;;;;;6.90;4.78;;;12.60;91.20;;;;;;1867757;77;21445;-58
2022/10/06 00:20:16;;;;;;;8.30;5.28;;;12.60;91.30;;;;;;1867717;77;21562;-58
2022/10/06 00:22:47;;;;;;;5.95;4.60;;;12.70;91.40;;;;;;1867719;77;21050;-58
2022/10/06 00:25:19;;;;;;;5.45;4.20;;;12.70;91.30;;;;;;1867763;75;21011;-58
2022/10/06 00:27:50;;;;;;;7.37;4.65;;;12.70;91.30;;;;;;1867475;76;21045;-58
2022/10/06 00:30:22;;;;;;;5.42;4.40;;;12.70;91.30;;;;;;1867784;76;21092;-58
2022/10/06 00:32:56;;;;;;;6.87;4.28;;;12.70;91.20;;;;;;1867412;77;21054;-58
2022/10/06 00:35:27;;;;;;;5.28;4.10;;;12.70;91.10;;;;;;1867772;77;21100;-57
2022/10/06 00:37:56;;;;;;;6.90;4.60;;;12.70;91.00;;;;;;1867920;75;21492;-58
2022/10/06 00:40:25;;;;;;;5.87;4.62;;;12.60;91.10;;;;;;1867806;77;20999;-58
2022/10/06 00:42:57;;;;;;;7.83;4.80;;;12.60;91.20;;;;;;1867739;75;21578;-58
2022/10/06 00:45:35;;;;;;;8.45;4.35;;;12.60;91.30;;;;;;1867727;77;21026;-58
2022/10/06 00:48:07;;;;;;;6.97;4.50;;;12.70;91.60;;;;;;1867549;77;21413;-58
2022/10/06 00:50:36;;;;;;;5.90;4.03;;;12.60;91.20;;;;;;1867820;77;21100;-58
2022/10/06 00:53:06;;;;;;;5.72;4.30;;;12.60;91.10;;;;;;1867866;76;21485;-58
2022/10/06 00:55:36;;;;;;;6.47;4.40;;;12.60;91.20;;;;;;1874603;75;21064;-58
2022/10/06 00:58:06;;;;;;;6.08;4.40;;;12.60;91.30;;;;;;1904730;75;21175;-58
2022/10/06 01:00:36;;;;;;;7.22;4.65;;;12.60;91.30;;;;;;1904716;74;21021;-58
2022/10/06 01:03:10;;;;;;;6.95;4.25;;;12.60;91.40;;;;;;1904763;75;21065;-58
2022/10/06 01:05:48;;;;;;;7.95;4.87;;;12.60;91.30;;;;;;1904853;75;21029;-58
2022/10/06 01:08:18;;;;;;;5.03;4.10;;;12.60;91.30;;;;;;1904758;75;21021;-58
2022/10/06 01:10:47;;;;;;;7.37;5.20;;;12.60;91.30;;;;;;1904628;74;21104;-58
2022/10/06 01:13:18;;;;;;;7.97;4.90;;;12.60;91.40;;;;;;1904663;74;21001;-58
2022/10/06 01:15:55;;;;;;;7.08;4.78;;;12.50;91.40;;;;;;1904634;74;21103;-58
2022/10/06 01:18:27;;;;;;;6.55;4.50;;;12.50;91.40;;;;;;1903633;74;21064;-57
2022/10/06 01:21:04;;;;;;;6.87;4.33;;;12.60;91.40;;;;;;1904407;74;21048;-58
2022/10/06 01:23:34;;;;;;;5.55;4.60;;;12.60;91.50;;;;;;1904591;75;21127;-58
2022/10/06 01:26:07;;;;;;;7.33;5.05;;;12.50;91.50;;;;;;1904788;75;21029;-58
2022/10/06 01:28:37;;;;;;;7.87;4.85;;;12.60;91.50;;;;;;1904729;75;21024;-58
2022/10/06 01:31:08;;;;;;;7.05;4.72;;;12.60;91.50;;;;;;1904702;74;21049;-58
2022/10/06 01:33:37;;;;;;;7.28;4.58;;;12.50;91.50;;;;;;1904732;75;21102;-58
2022/10/06 01:36:07;;;;;;;6.83;4.87;;;12.60;91.40;;;;;;1904730;75;21091;-60
2022/10/06 01:38:36;;;;;;;6.58;4.70;;;12.50;91.40;;;;;;1904753;74;21025;-60
2022/10/06 01:41:06;;;;;;;7.00;4.70;;;12.50;91.40;;;;;;1904708;75;21041;-57
2022/10/06 01:43:36;;;;;;;5.47;4.00;;;12.50;91.40;;;;;;1904642;75;21029;-58
2022/10/06 01:46:07;;;;;;;7.65;4.80;;;12.50;91.30;;;;;;1904742;75;21107;-58
2022/10/06 01:48:37;;;;;;;7.40;4.87;;;12.40;91.30;;;;;;1904759;75;21110;-58
2022/10/06 01:51:08;;;;;;;6.33;4.17;;;12.30;91.50;;;;;;1904585;75;21033;-58
2022/10/06 01:53:38;;;;;;;6.97;4.20;;;12.40;91.70;;;;;;1904666;75;21451;-58
2022/10/06 01:56:07;;;;;;;6.55;4.80;;;12.40;91.80;;;;;;1898911;75;21054;-57
2022/10/06 01:58:37;;;;;;;7.60;5.17;;;12.40;91.70;;;;;;1867675;77;21111;-58
2022/10/06 02:01:08;;;;;;;6.25;4.28;;;12.40;91.70;;;;;;1867726;77;21160;-57
2022/10/06 02:03:38;;;;;;;6.08;4.28;;;12.40;91.70;;;;;;1867715;76;21029;-57
2022/10/06 02:06:08;;;;;;;7.00;4.30;;;12.40;91.50;;;;;;1867805;77;21104;-58
2022/10/06 02:08:38;;;;;;;6.42;4.45;;;12.40;91.50;;;;;;1867746;75;21042;-58
2022/10/06 02:11:09;;;;;;;7.08;4.45;;;12.40;91.50;;;;;;1867684;75;21003;-58
2022/10/06 02:13:40;;;;;;;5.58;3.98;;;12.40;91.40;;;;;;1863158;77;21075;-58
2022/10/06 02:16:12;;;;;;;5.80;4.28;;;12.30;91.40;;;;;;1867801;77;21027;-58
2022/10/06 02:18:42;;;;;;;6.17;4.83;;;12.40;91.50;;;;;;1867899;77;21104;-58
2022/10/06 02:21:16;;;;;;;6.30;4.70;;;12.30;91.50;;;;;;1867806;75;21003;-58
2022/10/06 02:23:47;;;;;;;9.00;4.63;;;12.30;91.50;;;;;;1868204;77;21030;-58
2022/10/06 02:26:17;;;;;;;6.45;4.75;;;12.30;91.50;;;;;;1867973;77;21256;-58
2022/10/06 02:28:48;;;;;;;6.45;5.15;;;12.30;91.50;;;;;;1867909;77;21027;-58
2022/10/06 02:31:19;;;;;;;5.72;4.37;;;12.30;91.60;;;;;;1867483;76;21067;-58
2022/10/06 02:33:50;;;;;;;4.87;4.30;;;12.30;91.70;;;;;;1867682;75;21026;-58
2022/10/06 02:36:21;;;;;;;10.15;5.58;;;12.30;91.70;;;;;;1867717;77;21116;-58
2022/10/06 02:38:50;;;;;;;15.40;6.80;;;12.30;91.60;;;;;;1867854;76;21442;-58
2022/10/06 02:41:20;;;;;;;7.35;6.33;;;12.30;91.40;;;;;;1867694;75;21033;-58
2022/10/06 02:43:54;;;;;;;8.00;5.30;;;12.20;91.40;;;;;;1867772;77;21015;-58
2022/10/06 02:46:21;;;;;;;10.70;5.62;;;12.20;91.60;;;;;;1867621;77;21034;-58
2022/10/06 02:48:52;;;;;;;11.68;5.45;;;12.20;91.70;;;;;;1867664;76;21030;-58
2022/10/06 02:51:22;;;;;;;9.05;4.83;;;12.20;91.70;;;;;;1867717;77;21124;-58
2022/10/06 02:53:52;;;;;;;8.88;4.97;;;12.20;90.90;;;;;;1867735;76;21003;-58
2022/10/06 02:56:23;;;;;;;7.10;5.45;;;12.00;91.30;;;;;;1867697;77;21088;-58
2022/10/06 02:58:54;;;;;;;7.05;4.78;;;12.00;91.50;;;;;;1867778;76;21042;-58
2022/10/06 03:01:28;;;;;;;;;;;12.00;91.70;;;;;;1868869;77;21075;-58
2022/10/06 03:03:59;;;;;;;20.82;5.42;;;12.00;91.70;;;;;;1867597;76;20363;-58
2022/10/06 03:06:30;;;;;;;6.92;4.78;;;12.00;91.70;;;;;;1867706;76;21019;-58
2022/10/06 03:09:03;;;;;;;10.65;4.92;;;12.00;91.70;;;;;;1866088;77;21112;-58
2022/10/06 03:11:35;;;;;;;11.97;4.70;;;12.00;91.70;;;;;;1867692;77;21030;-58
2022/10/06 03:14:06;;;;;;;7.50;4.50;;;12.10;91.70;;;;;;1867886;77;21054;-58
2022/10/06 03:16:38;;;;;;;7.15;4.60;;;12.00;91.60;;;;;;1867813;76;21065;-58
2022/10/06 03:19:09;;;;;;;15.63;5.12;;;12.00;91.50;;;;;;1867883;77;21113;-59
2022/10/06 03:21:43;;;;;;;7.58;4.35;;;12.00;91.60;;;;;;1867934;76;21100;-59
2022/10/06 03:24:14;;;;;;;8.75;4.83;;;11.90;91.60;;;;;;1867916;75;21055;-59
2022/10/06 03:26:46;;;;;;;10.65;5.00;;;12.00;91.70;;;;;;1867989;76;21038;-59
2022/10/06 03:29:16;;;;;;;10.48;5.10;;;12.00;91.70;;;;;;1867748;75;21108;-59
2022/10/06 03:31:47;;;;;;;8.88;4.60;;;12.00;91.60;;;;;;1867155;77;21090;-59
2022/10/06 03:34:16;;;;;;;9.63;6.05;;;12.00;91.60;;;;;;1867698;75;21509;-59
2022/10/06 03:36:46;;;;;;;12.13;5.90;;;12.00;91.60;;;;;;1867838;76;21027;-59
2022/10/06 03:39:15;;;;;;;10.78;5.45;;;11.90;91.50;;;;;;1867848;77;21066;-59
2022/10/06 03:41:45;;;;;;;17.90;6.80;;;11.90;91.60;;;;;;1867816;76;21171;-59
2022/10/06 03:44:15;;;;;;;18.80;7.08;;;11.90;91.70;;;;;;1867660;77;21082;-59
2022/10/06 03:46:45;;;;;;;12.65;6.03;;;12.00;91.80;;;;;;1867694;76;21138;-59
2022/10/06 03:49:14;;;;;;;19.23;6.80;;;12.00;91.70;;;;;;1867722;76;20998;-59
2022/10/06 03:51:43;;;;;;;16.65;6.33;;;12.00;91.80;;;;;;1867738;77;21014;-59
2022/10/06 03:54:14;;;;;;;9.10;4.65;;;12.00;91.80;;;;;;1865250;77;21162;-58
2022/10/06 03:56:45;;;;;;;12.55;5.45;;;12.00;91.80;;;;;;1867764;77;21537;-58
2022/10/06 03:59:16;;;;;;;6.42;4.45;;;11.90;91.20;;;;;;1900607;75;21069;-59
2022/10/06 04:01:48;;;;;;;8.90;4.28;;;11.90;91.60;;;;;;1904859;75;20993;-58
2022/10/06 04:04:21;;;;;;;10.50;4.50;;;11.80;91.40;;;;;;1901833;75;21029;-58
2022/10/06 04:06:52;;;;;;;9.18;5.00;;;11.70;91.40;;;;;;1904347;74;21072;-58
2022/10/06 04:09:22;;;;;;;9.50;5.72;;;11.70;91.60;;;;;;1904824;75;21029;-58
2022/10/06 04:11:52;;;;;;;10.05;5.00;;;11.70;91.90;;;;;;1904755;75;21033;-58
2022/10/06 04:14:21;;;;;;;6.45;5.30;;;11.70;92.20;;;;;;1904789;75;21103;-58
2022/10/06 04:16:52;;;;;;;13.28;5.00;;;11.80;92.10;;;;;;1904793;75;21053;-58
2022/10/06 04:19:38;;;;;;;10.88;5.25;;;11.90;92.10;;;;;;1904235;75;21056;-58
2022/10/06 04:22:09;;;;;;;12.88;7.17;;;11.90;92.00;;;;;;1904693;74;21041;-58
2022/10/06 04:24:38;;;;;;;8.48;5.90;;;12.00;91.90;;;;;;1904594;74;21037;-58
2022/10/06 04:27:26;;;;;;;7.72;6.03;;;12.00;91.50;;;;;;1904778;75;21037;-58
2022/10/06 04:30:00;;;;;;;8.30;5.28;;;11.90;92.00;;;;;;1902184;75;21118;-58
2022/10/06 04:32:31;;;;;;;13.50;8.70;;;12.00;91.90;;;;;;1871978;75;21045;-58
2022/10/06 04:35:00;;;;;;;8.98;5.80;;;12.00;91.70;;;;;;1904861;75;21009;-58
2022/10/06 04:37:30;;;;;;;8.15;5.47;;;12.00;91.60;;;;;;1904782;75;21152;-58
2022/10/06 04:40:00;;;;;;;24.85;22.37;;;12.00;91.50;;;;;;1904704;75;21029;-58
2022/10/06 04:42:30;;;;;;;12.03;6.15;;;12.00;91.50;;;;;;1904961;75;21107;-58
2022/10/06 04:45:00;;;;;;;8.40;5.55;;;11.90;91.60;;;;;;1904831;75;21082;-58
2022/10/06 04:47:30;;;;;;;8.20;5.92;;;12.00;91.90;;;;;;1904828;75;21123;-58
2022/10/06 04:49:59;;;;;;;32.78;8.65;;;12.00;92.10;;;;;;1904761;74;21041;-58
2022/10/06 04:52:29;;;;;;;14.05;6.80;;;12.20;92.20;;;;;;1904747;75;21005;-58
2022/10/06 04:54:59;;;;;;;8.90;5.67;;;12.30;92.00;;;;;;1904637;75;21107;-58
2022/10/06 04:57:28;;;;;;;9.28;6.25;;;12.40;91.90;;;;;;1904877;75;21037;-58
2022/10/06 05:02:46;;;;;;;13.80;6.55;;;12.60;91.80;;;;;;1867695;77;21075;-58
2022/10/06 05:05:17;;;;;;;9.45;5.60;;;12.70;91.60;;;;;;1867842;76;21038;-58
2022/10/06 05:07:46;;;;;;;6.95;4.80;;;12.70;91.60;;;;;;1867717;76;21066;-58
2022/10/06 05:10:16;;;;;;;11.00;4.92;;;12.80;91.30;;;;;;1867617;77;22012;-58
2022/10/06 05:12:46;;;;;;;12.53;5.45;;;12.80;91.20;;;;;;1867680;76;21093;-58
2022/10/06 05:15:15;;;;;;;8.93;5.60;;;12.80;91.30;;;;;;1867671;77;21299;-58
2022/10/06 05:17:45;;;;;;;10.48;5.87;;;12.70;91.40;;;;;;1867696;76;21097;-58
2022/10/06 05:20:14;;;;;;;12.28;6.90;;;12.70;91.30;;;;;;1867690;75;21034;-58
2022/10/06 05:22:44;;;;;;;15.00;7.12;;;12.80;91.30;;;;;;1867798;77;21564;-58
2022/10/06 05:25:14;;;;;;;19.87;8.80;;;12.80;91.50;;;;;;1867718;75;21034;-58
2022/10/06 05:27:43;;;;;;;15.53;7.22;;;13.00;91.70;;;;;;1867695;77;21125;-58
2022/10/06 05:30:14;;;;;;;35.00;17.15;;;13.10;91.70;;;;;;1867677;77;21026;-58
2022/10/06 05:32:49;;;;;;;23.62;10.82;;;13.20;91.40;;;;;;1867692;76;21006;-58
2022/10/06 05:35:16;;;;;;;29.55;12.55;;;13.30;91.30;;;;;;1867467;75;21532;-58
2022/10/06 05:37:45;;;;;;;23.18;11.15;;;13.40;91.20;;;;;;1867678;77;21073;-58
2022/10/06 05:40:15;;;;;;;14.85;7.45;;;13.40;91.30;;;;;;1867723;76;21108;-58
2022/10/06 05:42:44;;;;;;;15.05;7.97;;;13.60;91.20;;;;;;1867567;77;21137;-58
2022/10/06 05:45:14;;;;;;;10.98;7.47;;;13.70;91.40;;;;;;1867534;75;21103;-58
2022/10/06 05:47:43;;;;;;;14.80;6.62;;;13.80;91.10;;;;;;1867587;76;21014;-58
2022/10/06 05:50:12;;;;;;;9.30;5.62;;;13.90;91.00;;;;;;1867505;77;21465;-58
2022/10/06 05:52:41;;;;;;;7.62;4.95;;;14.00;90.90;;;;;;1867731;77;21018;-58
2022/10/06 05:55:10;;;;;;;12.63;4.03;;;14.10;90.60;;;;;;1867510;75;21038;-58
2022/10/06 05:57:40;;;;;;;4.08;3.67;;;14.20;90.50;;;;;;1867632;75;21108;-58
2022/10/06 06:00:11;;;;;;;13.50;3.95;;;14.30;90.50;;;;;;1867411;75;21078;-58
2022/10/06 06:02:41;;;;;;;4.95;3.33;;;14.30;90.50;;;;;;1867519;77;21022;-58
2022/10/06 06:05:12;;;;;;;5.15;3.25;;;14.40;90.30;;;;;;1867481;77;21470;-58
2022/10/06 06:07:42;;;;;;;8.03;3.98;;;14.50;90.30;;;;;;1867763;76;21034;-58
2022/10/06 06:10:11;;;;;;;3.65;3.33;;;14.60;90.50;;;;;;1867646;76;21003;-58
2022/10/06 06:12:41;;;;;;;5.00;3.37;;;14.70;90.10;;;;;;1867683;75;21108;-58
2022/10/06 06:18:05;;;;;;;6.25;3.72;;;14.80;89.70;;;;;;1867587;75;21053;-58
2022/10/06 06:20:35;;;;;;;4.17;3.70;;;14.90;89.30;;;;;;1867677;77;21010;-58
2022/10/06 06:23:04;;;;;;;6.58;4.12;;;14.90;88.40;;;;;;1867503;76;21035;-58
2022/10/06 06:25:34;;;;;;;22.48;6.00;;;15.00;88.50;;;;;;1867436;75;21070;-58
2022/10/06 06:28:04;;;;;;;5.90;4.90;;;15.00;88.30;;;;;;1867614;75;21410;-58
2022/10/06 06:30:34;;;;;;;6.47;3.92;;;15.10;87.50;;;;;;1867520;77;21042;-58
2022/10/06 06:33:03;;;;;;;6.17;4.05;;;15.20;87.20;;;;;;1867663;76;21031;-58
2022/10/06 06:35:33;;;;;;;5.60;4.22;;;15.20;87.00;;;;;;1867446;77;21002;-58
2022/10/06 06:38:03;;;;;;;4.40;4.00;;;15.20;86.60;;;;;;1867666;77;21034;-58
2022/10/06 06:40:33;;;;;;;6.67;4.35;;;15.20;86.20;;;;;;1867616;77;21050;-58
2022/10/06 06:43:02;;;;;;;5.58;4.60;;;15.20;86.10;;;;;;1867651;75;21004;-58
2022/10/06 06:45:36;;;;;;;8.05;5.50;;;15.20;86.60;;;;;;1816041;75;21023;-58
2022/10/06 06:48:16;;;;;;;10.63;6.22;;;15.30;86.20;;;;;;1866074;75;21074;-58
2022/10/06 06:50:49;;;;;;;8.23;5.17;;;15.30;86.40;;;;;;1867857;77;21094;-58
2022/10/06 06:53:18;;;;;;;7.53;4.78;;;15.40;85.10;;;;;;1866230;77;21034;-58
2022/10/06 06:55:51;;;;;;;9.28;5.58;;;15.40;85.30;;;;;;1867578;77;21100;-58
2022/10/06 06:58:22;;;;;;;6.95;4.65;;;15.40;84.60;;;;;;1867684;75;21027;-58
2022/10/06 07:00:51;;;;;;;7.92;4.92;;;15.50;85.00;;;;;;1867566;75;21161;-58
2022/10/06 07:03:22;;;;;;;8.43;4.47;;;15.50;85.20;;;;;;1867725;75;21099;-58
2022/10/06 07:05:51;;;;;;;11.73;4.62;;;15.50;84.80;;;;;;1867756;76;21034;-58
2022/10/06 07:08:21;;;;;;;4.83;3.67;;;15.60;84.90;;;;;;1867634;75;21375;-58
2022/10/06 07:10:51;;;;;;;4.75;3.25;;;15.70;84.20;;;;;;1867576;77;21034;-58
2022/10/06 07:13:20;;;;;;;4.30;3.20;;;15.70;83.60;;;;;;1867531;76;21026;-58
2022/10/06 07:27:00;;;;;;;4.67;3.40;;;15.90;83.50;;;;;;1833953;77;21058;-58
2022/10/06 07:29:30;;;;;;;4.17;3.40;;;15.90;82.90;;;;;;1867644;76;21055;-58
2022/10/06 07:31:59;;;;;;;7.53;3.15;;;16.00;83.00;;;;;;1867689;77;21096;-58
2022/10/06 07:34:31;;;;;;;3.50;2.83;;;16.00;83.40;;;;;;1867589;76;21429;-58
2022/10/06 07:37:01;;;;;;;4.20;3.55;;;16.10;82.70;;;;;;1867695;75;21096;-58
2022/10/06 07:39:30;;;;;;;4.05;3.33;;;16.10;82.60;;;;;;1867683;77;21104;-58
2022/10/06 07:42:00;;;;;;;4.90;3.22;;;16.20;82.40;;;;;;1867579;75;21105;-57
2022/10/06 07:44:29;;;;;;;7.33;4.25;;;16.20;81.90;;;;;;1867529;77;21022;-57
2022/10/06 07:46:59;;;;;;;3.98;3.10;;;16.20;82.00;;;;;;1867518;77;21175;-57
2022/10/06 07:49:30;;;;;;;3.42;2.35;;;16.20;82.10;;;;;;1863385;77;21649;-57
2022/10/06 07:51:59;;;;;;;2.85;2.65;;;16.30;82.10;;;;;;1867525;75;21058;-57
2022/10/06 07:54:29;;;;;;;6.03;3.17;;;16.40;82.20;;;;;;1885156;75;21087;-57
2022/10/06 07:57:06;;;;;;;4.50;2.92;;;16.50;82.40;;;;;;1856764;75;21100;-57
2022/10/06 07:59:35;;;;;;;4.78;2.62;;;16.60;81.60;;;;;;1910046;74;21025;-57
2022/10/06 08:02:05;;;;;;;3.75;2.90;;;16.70;80.40;;;;;;1922059;74;21053;-57
2022/10/06 08:04:51;;;;;;;3.67;2.70;;;16.80;80.80;;;;;;1926182;74;21049;-57
2022/10/06 08:07:35;;;;;;;2.55;1.87;;;16.80;80.70;;;;;;1924059;74;21077;-57
2022/10/06 08:10:13;;;;;;;6.20;3.22;;;16.90;78.80;;;;;;1905648;74;21103;-57
2022/10/06 08:12:55;;;;;;;5.55;3.47;;;16.90;78.60;;;;;;1896877;74;21150;-57
2022/10/06 08:15:40;;;;;;;6.08;2.90;;;17.00;78.20;;;;;;1889478;75;21551;-57
2022/10/06 08:18:14;;;;;;;7.75;2.80;;;17.00;79.30;;;;;;1888232;75;21125;-57
2022/10/06 08:20:45;;;;;;;3.72;2.83;;;17.20;78.50;;;;;;1889648;75;21101;-57
2022/10/06 08:23:15;;;;;;;9.08;3.05;;;17.20;77.80;;;;;;1889974;74;21097;-57
2022/10/06 08:25:53;;;;;;;5.72;3.42;;;17.30;78.30;;;;;;1901868;74;21084;-57
2022/10/06 08:28:23;;;;;;;3.45;3.08;;;17.30;77.80;;;;;;1889488;76;21133;-57
2022/10/06 08:30:54;;;;;;;3.27;2.95;;;17.30;76.90;;;;;;1910490;74;21471;-57
2022/10/06 08:33:23;;;;;;;4.35;2.77;;;17.30;76.60;;;;;;1907969;74;21126;-57
2022/10/06 08:35:53;;;;;;;3.45;2.98;;;17.20;75.90;;;;;;1926225;74;21060;-57
2022/10/06 08:38:22;;;;;;;4.80;2.58;;;17.30;76.10;;;;;;1926150;74;21017;-57
2022/10/06 08:40:51;;;;;;;5.35;3.00;;;17.20;76.00;;;;;;1925990;74;21075;-57
2022/10/06 08:43:23;;;;;;;6.33;3.25;;;17.30;75.00;;;;;;1925907;74;21021;-57
2022/10/06 08:45:57;;;;;;;3.17;2.37;;;17.20;73.50;;;;;;1925955;74;21068;-57
2022/10/06 08:48:28;;;;;;;4.78;2.67;;;17.20;74.40;;;;;;1926162;74;21017;-57
2022/10/06 08:51:17;;;;;;;4.50;2.75;;;17.30;74.70;;;;;;1925961;74;21150;-57
2022/10/06 08:54:03;;;;;;;6.92;3.10;;;17.30;74.20;;;;;;1915794;74;21018;-57
2022/10/06 08:56:38;;;;;;;3.65;1.85;;;17.30;74.20;;;;;;1926233;74;21012;-57
2022/10/06 08:59:08;;;;;;;2.12;1.92;;;17.40;73.90;;;;;;1925323;74;21083;-56
2022/10/06 09:01:50;;;;;;;3.47;2.67;;;17.50;73.00;;;;;;1925690;74;21068;-57
2022/10/06 09:04:22;;;;;;;5.62;2.92;;;17.50;72.20;;;;;;1925815;74;20997;-57
2022/10/06 09:07:06;;;;;;;4.40;2.77;;;17.60;72.70;;;;;;1924649;74;21017;-56
2022/10/06 09:09:53;;;;;;;4.37;2.50;;;17.60;72.10;;;;;;1903277;74;21021;-58
2022/10/06 09:12:37;;;;;;;5.03;2.75;;;17.60;71.40;;;;;;1906423;74;21078;-57
2022/10/06 09:15:12;;;;;;;3.85;2.67;;;17.60;71.60;;;;;;1899477;74;21022;-68
2022/10/06 09:17:46;;;;;;;3.00;2.70;;;17.50;70.10;;;;;;1888686;76;21053;-58
2022/10/06 09:20:32;;;;;;;2.92;2.55;;;17.50;69.80;;;;;;1888741;76;21018;-58
2022/10/06 09:23:03;;;;;;;3.52;2.40;;;17.50;70.80;;;;;;1888751;76;21589;-58
2022/10/06 09:25:33;;;;;;;3.60;2.83;;;17.60;70.40;;;;;;1888776;75;21129;-58
2022/10/06 09:28:04;;;;;;;4.65;2.67;;;17.60;70.30;;;;;;1888560;75;21355;-58
2022/10/06 09:30:33;;;;;;;5.42;2.95;;;17.70;71.30;;;;;;1888501;76;21014;-58
2022/10/06 09:33:05;;;;;;;3.37;2.20;;;17.70;71.10;;;;;;1889876;75;21030;-58
2022/10/06 09:35:35;;;;;;;2.40;2.10;;;17.80;70.20;;;;;;1889862;76;21046;-58
2022/10/06 09:38:05;;;;;;;5.15;2.27;;;17.80;68.80;;;;;;1889953;76;21010;-58
2022/10/06 09:40:50;;;;;;;2.33;2.10;;;17.90;69.00;;;;;;1889893;75;21099;-58
2022/10/06 09:43:21;;;;;;;4.35;2.58;;;17.90;68.50;;;;;;1889744;75;21119;-58
2022/10/06 09:45:51;;;;;;;3.45;2.58;;;17.90;68.90;;;;;;1889760;75;21109;-58
2022/10/06 09:48:27;;;;;;;3.30;2.30;;;18.00;69.40;;;;;;1889901;75;21034;-58
2022/10/06 09:51:15;;;;;;;6.35;4.65;;;18.00;67.90;;;;;;1888787;75;21445;-58
2022/10/06 09:53:46;;;;;;;3.85;2.22;;;18.00;68.20;;;;;;1889823;76;21034;-57
2022/10/06 09:56:18;;;;;;;4.33;2.42;;;18.00;68.50;;;;;;1890725;75;21050;-57
2022/10/06 09:58:58;;;;;;;5.50;2.15;;;18.10;67.80;;;;;;1889638;75;21504;-57
2022/10/06 10:01:29;;;;;;;2.77;2.15;;;18.10;66.90;;;;;;1890017;76;21022;-57
2022/10/06 10:04:01;;;;;;;5.85;2.45;;;18.10;67.10;;;;;;1887268;75;21101;-57
2022/10/06 10:06:33;;;;;;;5.85;2.52;;;18.20;66.80;;;;;;1886233;75;21046;-57
2022/10/06 10:09:23;;;;;;;4.45;2.85;;;18.20;66.00;;;;;;1886189;76;21002;-58
2022/10/06 10:12:33;;;;;;;2.77;2.42;;;18.20;66.50;;;;;;1886243;76;20998;-57
2022/10/06 10:15:02;;;;;;;4.95;2.62;;;18.20;66.00;;;;;;1884793;76;21069;-58
2022/10/06 10:17:53;;;;;;;3.75;2.67;;;18.20;66.20;;;;;;1886307;76;21088;-58
2022/10/06 10:20:28;;;;;;;4.53;3.12;;;18.30;66.60;;;;;;1886233;76;21092;-57
2022/10/06 10:23:00;;;;;;;3.30;2.85;;;18.30;67.00;;;;;;1886056;75;21021;-57
2022/10/06 10:25:41;;;;;;;8.73;2.83;;;18.30;67.40;;;;;;1886057;75;21006;-57
2022/10/06 10:28:25;;;;;;;2.62;2.10;;;18.40;67.50;;;;;;1886146;76;21128;-57
2022/10/06 10:31:06;;;;;;;4.03;2.50;;;18.40;66.60;;;;;;1886194;75;21096;-57
2022/10/06 10:33:59;;;;;;;5.33;2.50;;;18.40;66.90;;;;;;1885965;76;21487;-57
2022/10/06 10:36:34;;;;;;;3.12;2.72;;;18.40;66.60;;;;;;1886270;76;21073;-57
2022/10/06 10:39:04;;;;;;;;;;;18.40;66.50;;;;;;1888893;76;21018;-57
2022/10/06 10:41:38;;;;;;;6.50;3.70;;;18.50;65.90;;;;;;1886216;76;20107;-57
2022/10/06 10:44:09;;;;;;;3.00;2.20;;;18.50;66.80;;;;;;1886021;75;21057;-57
2022/10/06 10:46:44;;;;;;;2.85;2.55;;;18.50;64.90;;;;;;1886144;76;21515;-57
2022/10/06 10:49:14;;;;;;;;;;;18.50;65.70;;;;;;1888964;75;21049;-57
2022/10/06 10:52:04;;;;;;;3.20;2.90;;;18.60;64.60;;;;;;1886154;76;20105;-57
2022/10/06 10:55:00;;;;;;;2.40;2.20;;;18.60;66.30;;;;;;1886224;76;21019;-57
2022/10/06 10:57:32;;;;;;;3.47;2.87;;;18.60;65.50;;;;;;1884311;75;21065;-57
2022/10/06 11:00:07;;;;;;;5.28;2.67;;;18.70;65.00;;;;;;1885900;75;21050;-57
2022/10/06 11:02:37;;;;;;;5.87;3.17;;;18.70;64.60;;;;;;1886102;76;21042;-57
2022/10/06 11:05:18;;;;;;;4.85;3.67;;;18.70;64.90;;;;;;1877323;74;21108;-57
2022/10/06 11:07:50;;;;;;;6.33;3.90;;;18.70;64.10;;;;;;1876001;76;21058;-57
2022/10/06 11:10:34;;;;;;;3.95;2.77;;;18.80;63.40;;;;;;1875391;76;21062;-57
2022/10/06 11:13:09;;;;;;;7.22;3.75;;;18.80;62.80;;;;;;1876864;76;21097;-57
2022/10/06 11:16:06;;;;;;;8.03;4.87;;;18.80;62.30;;;;;;1876700;76;21598;-57
2022/10/06 11:18:50;;;;;;;7.67;5.15;;;18.80;62.90;;;;;;1877066;76;21101;-58
2022/10/06 11:21:28;;;;;;;8.35;3.72;;;18.90;62.70;;;;;;1877010;76;21113;-57
2022/10/06 11:24:03;;;;;;;4.22;2.95;;;18.90;62.80;;;;;;1870623;76;21116;-57
2022/10/06 11:30:07;;;;;;;5.95;3.35;;;19.00;61.60;;;;;;1876592;76;20385;-58
2022/10/06 11:32:41;;;;;;;5.92;2.90;;;19.00;61.90;;;;;;1876930;76;21116;-58
2022/10/06 11:35:22;;;;;;;6.72;2.98;;;19.00;61.90;;;;;;1876882;76;21109;-58
2022/10/06 11:37:54;;;;;;;5.10;3.52;;;19.00;62.20;;;;;;1876703;75;21054;-58
2022/10/06 11:40:36;;;;;;;4.80;2.47;;;19.00;61.30;;;;;;1876902;76;21011;-58
2022/10/06 11:43:27;;;;;;;6.53;3.00;;;19.00;62.40;;;;;;1876855;76;21026;-58
2022/10/06 11:46:08;;;;;;;3.55;2.37;;;19.10;63.30;;;;;;1877214;76;21047;-58
2022/10/06 11:48:38;;;;;;;3.17;2.10;;;19.10;63.20;;;;;;1876503;76;21104;-57
2022/10/06 11:51:21;;;;;;;4.80;2.75;;;19.10;61.10;;;;;;1876889;76;21089;-58
2022/10/06 11:53:59;;;;;;;4.33;2.67;;;19.20;60.80;;;;;;1876709;75;21457;-58
2022/10/06 11:56:38;;;;;;;3.83;3.02;;;19.10;59.80;;;;;;1876074;76;21035;-58
2022/10/06 11:59:16;;;;;;;6.70;4.30;;;19.10;58.60;;;;;;1877014;76;21050;-58
2022/10/06 12:01:48;;;;;;;5.47;3.85;;;19.10;59.90;;;;;;1872393;76;21559;-58
2022/10/06 12:04:18;;;;;;;4.40;2.60;;;19.10;60.20;;;;;;1876931;76;21131;-58
2022/10/06 12:06:52;;;;;;;2.87;2.40;;;19.10;60.50;;;;;;1877016;76;21030;-58
2022/10/06 12:09:29;;;;;;;9.83;4.37;;;19.10;60.80;;;;;;1876812;76;21496;-58
2022/10/06 12:12:19;;;;;;;4.50;2.90;;;19.20;61.40;;;;;;1876929;76;21022;-58
2022/10/06 12:15:15;;;;;;;2.40;1.95;;;19.10;61.00;;;;;;1876912;75;21061;-58
2022/10/06 12:17:48;;;;;;;;;;;19.20;60.40;;;;;;1879842;75;21096;-58
2022/10/06 12:20:34;;;;;;;4.62;3.65;;;19.10;60.60;;;;;;1876756;76;20104;-58
2022/10/06 12:23:12;;;;;;;6.03;4.45;;;19.10;61.20;;;;;;1877198;76;20995;-58
2022/10/06 12:25:47;;;;;;;25.57;14.70;;;19.10;60.20;;;;;;1877126;75;21031;-58
2022/10/06 12:28:34;;;;;;;20.23;11.05;;;19.10;61.40;;;;;;1877038;76;21206;-58
2022/10/06 12:31:42;;;;;;;12.55;6.97;;;19.10;61.60;;;;;;1876072;76;21606;-58
2022/10/06 12:34:43;;;;;;;3.40;3.10;;;19.10;62.00;;;;;;1876973;75;21030;-58
2022/10/06 12:37:30;;;;;;;4.05;3.02;;;19.20;60.10;;;;;;1877088;76;21023;-58
2022/10/06 12:40:36;;;;;;;5.55;3.83;;;19.20;60.40;;;;;;1877027;76;21054;-58
2022/10/06 12:43:19;;;;;;;6.28;3.35;;;19.10;60.50;;;;;;1877174;76;21109;-58
2022/10/06 12:45:56;;;;;;;6.75;4.45;;;19.10;60.40;;;;;;1876479;76;21429;-58
2022/10/06 12:48:31;;;;;;;5.37;4.25;;;19.00;60.80;;;;;;1877037;76;21023;-58
2022/10/06 12:51:06;;;;;;;5.22;4.17;;;19.00;61.10;;;;;;1877205;75;21039;-57
2022/10/06 12:53:38;;;;;;;6.62;4.67;;;18.90;61.10;;;;;;1877147;75;21041;-57
2022/10/06 12:56:13;;;;;;;7.05;5.75;;;18.90;61.40;;;;;;1877171;76;21042;-57
2022/10/06 12:58:43;;;;;;;8.83;6.15;;;18.90;61.50;;;;;;1876230;75;21007;-57
2022/10/06 13:01:13;;;;;;;19.55;9.60;;;18.90;61.60;;;;;;1876923;76;21031;-57
2022/10/06 13:03:45;;;;;;;18.90;10.60;;;19.00;61.10;;;;;;1877118;76;21042;-57
2022/10/06 13:06:14;;;;;;;27.42;15.88;;;19.00;61.80;;;;;;1877098;76;21442;-57
2022/10/06 13:08:43;;;;;;;30.50;16.77;;;19.00;61.60;;;;;;1876903;76;21058;-58
2022/10/06 13:11:25;;;;;;;20.25;11.65;;;19.00;61.80;;;;;;1877025;76;21058;-58
2022/10/06 13:14:01;;;;;;;8.55;6.67;;;19.00;61.90;;;;;;1876740;75;21039;-58
2022/10/06 13:16:32;;;;;;;12.90;7.20;;;19.00;60.50;;;;;;1876026;75;21038;-58
2022/10/06 13:19:02;;;;;;;7.40;5.70;;;19.00;59.80;;;;;;1877122;76;21088;-58
2022/10/06 13:21:31;;;;;;;9.50;5.72;;;19.00;58.60;;;;;;1877076;76;21006;-58
2022/10/06 13:24:00;;;;;;;8.13;5.85;;;19.00;59.60;;;;;;1876995;76;21498;-58
2022/10/06 13:26:31;;;;;;;9.93;5.47;;;18.90;59.80;;;;;;1876982;76;21478;-58
2022/10/06 13:29:01;;;;;;;16.02;7.28;;;18.90;60.30;;;;;;1876862;76;21099;-58
2022/10/06 13:31:35;;;;;;;10.55;7.17;;;18.90;60.50;;;;;;1877100;76;21100;-58
2022/10/06 13:34:12;;;;;;;11.08;7.40;;;18.90;60.50;;;;;;1877231;76;20998;-58
2022/10/06 13:36:43;;;;;;;14.40;7.22;;;18.80;60.50;;;;;;1877143;76;21031;-58